Time;durP1;ratioP1;P1;durP2;ratioP2;P2;SDS_P1;SDS_P2;PMS_P1;PMS_P2;Temp;Humidity;BMP_temperature;BMP_pressure;BME280_temperature;BME280_humidity;BME280_pressure;Samples;Min_cycle;Max_cycle;Signal;HPM_P1;HPM_P2
2023/09/01 00:00:24;;;;;;;1.50;1.40;;;18.00;1.00;;;;;;5223256;28;20481;-70
2023/09/01 00:02:58;;;;;;;2.13;1.52;;;18.00;1.00;;;;;;5239776;28;20031;-69
2023/09/01 00:05:33;;;;;;;2.88;1.58;;;17.90;1.00;;;;;;5240337;28;20036;-70
2023/09/01 00:08:12;;;;;;;2.72;1.40;;;17.70;1.00;;;;;;5207354;28;20035;-70
2023/09/01 00:10:48;;;;;;;2.10;1.50;;;17.60;1.00;;;;;;5209464;28;20569;-70
2023/09/01 00:13:19;;;;;;;1.70;1.60;;;17.40;1.00;;;;;;5244862;28;20054;-70
2023/09/01 00:15:50;;;;;;;1.63;1.42;;;17.20;1.00;;;;;;5211159;28;20474;-70
2023/09/01 00:18:21;;;;;;;2.13;1.40;;;17.10;1.00;;;;;;5242050;28;20024;-70
2023/09/01 00:21:00;;;;;;;1.70;1.38;;;17.00;1.00;;;;;;5219815;28;20019;-70
2023/09/01 00:23:32;;;;;;;2.30;1.55;;;17.00;1.00;;;;;;5238236;28;20066;-70
2023/09/01 00:26:08;;;;;;;2.60;1.95;;;16.90;1.00;;;;;;5263341;28;20328;-70
2023/09/01 00:28:40;;;;;;;2.42;1.40;;;16.80;94.80;;;;;;5224214;28;20325;-70
2023/09/01 00:31:11;;;;;;;2.00;1.65;;;16.80;30.30;;;;;;5238596;28;20028;-70
2023/09/01 00:33:45;;;;;;;1.77;1.67;;;16.80;69.20;;;;;;5228353;28;20385;-71
2023/09/01 00:36:18;;;;;;;1.58;1.48;;;16.80;92.40;;;;;;5222518;28;20032;-70
2023/09/01 00:38:57;;;;;;;1.77;1.60;;;16.80;99.90;;;;;;5222418;28;20027;-70
2023/09/01 00:41:32;;;;;;;1.50;1.40;;;16.80;99.90;;;;;;5223740;28;20260;-70
2023/09/01 00:44:06;;;;;;;1.90;1.70;;;16.80;99.90;;;;;;5223258;28;20362;-70
2023/09/01 00:46:46;;;;;;;2.15;1.52;;;16.80;99.90;;;;;;5204981;28;20029;-70
2023/09/01 00:49:20;;;;;;;2.22;1.40;;;16.80;1.00;;;;;;5241712;28;20040;-70
2023/09/01 00:51:52;;;;;;;1.58;1.48;;;16.80;1.00;;;;;;5243779;28;20523;-71
2023/09/01 00:54:23;;;;;;;1.83;1.67;;;16.80;1.00;;;;;;5239696;28;20040;-69
2023/09/01 00:56:55;;;;;;;2.65;1.70;;;16.80;1.00;;;;;;5239238;28;20050;-70
2023/09/01 00:59:31;;;;;;;2.00;1.48;;;16.80;1.00;;;;;;5216395;28;20359;-70
2023/09/01 01:02:04;;;;;;;1.67;1.50;;;16.80;1.00;;;;;;5263815;22;20062;-86
2023/09/01 01:04:35;;;;;;;1.85;1.42;;;16.80;99.90;;;;;;5284442;28;20023;-84
2023/09/01 01:07:30;;;;;;;1.73;1.60;;;16.80;99.90;;;;;;5267609;28;20038;-86
2023/09/01 01:10:12;;;;;;;1.70;1.60;;;16.80;99.90;;;;;;5284478;28;20213;-85
2023/09/01 01:13:00;;;;;;;3.55;1.55;;;16.70;99.90;;;;;;5284605;28;20042;-84
2023/09/01 01:15:35;;;;;;;2.05;1.30;;;16.70;99.90;;;;;;5301818;28;20038;-85
2023/09/01 01:18:13;;;;;;;3.53;1.38;;;16.70;99.90;;;;;;5284320;28;20312;-85
2023/09/01 01:20:49;;;;;;;1.40;1.30;;;16.70;1.00;;;;;;5284250;28;20035;-85
2023/09/01 01:23:23;;;;;;;3.13;1.42;;;16.70;99.90;;;;;;5284594;28;20038;-85
2023/09/01 01:25:59;;;;;;;1.50;1.40;;;16.70;99.90;;;;;;5284411;28;20101;-85
2023/09/01 01:28:31;;;;;;;1.50;1.40;;;16.70;1.00;;;;;;5284449;28;20023;-85
2023/09/01 01:31:05;;;;;;;2.08;1.45;;;16.70;99.90;;;;;;5284153;28;20031;-85
2023/09/01 01:34:16;;;;;;;2.17;1.63;;;16.70;99.90;;;;;;5266979;28;20034;-85
2023/09/01 01:36:55;;;;;;;1.75;1.33;;;16.70;99.90;;;;;;5284604;28;20024;-85
2023/09/01 01:39:33;;;;;;;1.38;1.27;;;16.70;99.90;;;;;;5283834;28;20034;-84
2023/09/01 01:42:15;;;;;;;1.88;1.77;;;16.70;1.00;;;;;;5283746;28;20330;-87
2023/09/01 01:44:49;;;;;;;1.85;1.65;;;16.60;99.90;;;;;;5284480;28;20310;-86
2023/09/01 01:47:23;;;;;;;2.03;1.73;;;16.60;1.00;;;;;;5284433;28;20038;-84
2023/09/01 01:49:54;;;;;;;1.85;1.75;;;16.60;1.00;;;;;;5284596;28;20027;-85
2023/09/01 01:52:34;;;;;;;3.13;1.50;;;16.60;1.00;;;;;;5283860;28;20215;-84
2023/09/01 01:55:07;;;;;;;1.75;1.50;;;16.60;1.00;;;;;;5284121;28;20023;-86
2023/09/01 01:57:38;;;;;;;2.72;1.73;;;16.50;1.00;;;;;;5283395;28;20029;-85
2023/09/01 02:00:14;;;;;;;1.92;1.45;;;16.50;1.00;;;;;;5283633;28;20027;-85
2023/09/01 02:03:07;;;;;;;;;;;16.50;1.00;;;;;;5302482;28;20045;-84
2023/09/01 02:05:38;;;;;;;2.05;1.70;;;16.50;1.00;;;;;;5284069;28;20093;-85
2023/09/01 02:08:22;;;;;;;2.10;1.50;;;16.40;99.90;;;;;;5284987;28;20047;-86
2023/09/01 02:10:53;;;;;;;1.55;1.45;;;16.30;99.90;;;;;;5283809;28;20030;-84
2023/09/01 02:13:25;;;;;;;2.00;1.65;;;16.30;99.90;;;;;;5300418;28;20027;-85
2023/09/01 02:16:05;;;;;;;1.63;1.52;;;16.30;99.90;;;;;;5283334;28;20023;-86
2023/09/01 02:18:40;;;;;;;2.20;1.73;;;16.20;99.90;;;;;;5283427;28;20023;-85
2023/09/01 02:21:26;;;;;;;2.30;1.77;;;16.20;99.90;;;;;;5267408;28;20032;-84
2023/09/01 02:24:02;;;;;;;1.40;1.30;;;16.20;99.90;;;;;;5283368;28;20037;-85
2023/09/01 02:26:33;;;;;;;1.98;1.80;;;16.30;99.90;;;;;;5283482;28;20031;-87
2023/09/01 02:29:05;;;;;;;2.13;1.55;;;16.30;99.90;;;;;;5283930;28;20031;-86
2023/09/01 02:31:36;;;;;;;2.63;1.48;;;16.30;99.90;;;;;;5283375;28;20027;-85
2023/09/01 02:34:07;;;;;;;1.73;1.63;;;16.30;99.90;;;;;;5283185;28;20027;-84
2023/09/01 02:36:39;;;;;;;1.50;1.40;;;16.30;99.90;;;;;;5283377;28;20318;-86
2023/09/01 02:39:11;;;;;;;1.95;1.60;;;16.20;99.90;;;;;;5299829;28;20027;-86
2023/09/01 02:41:43;;;;;;;2.15;1.70;;;16.20;99.90;;;;;;5283352;28;20027;-85
2023/09/01 02:44:16;;;;;;;2.50;1.73;;;16.30;99.90;;;;;;5282079;28;20034;-85
2023/09/01 02:46:52;;;;;;;1.90;1.50;;;16.20;99.90;;;;;;5283301;28;20027;-85
2023/09/01 02:49:26;;;;;;;2.03;1.83;;;16.20;99.90;;;;;;5267311;28;20035;-85
2023/09/01 02:52:03;;;;;;;1.83;1.73;;;16.20;99.90;;;;;;5283149;28;20318;-86
2023/09/01 02:54:34;;;;;;;2.03;1.50;;;16.20;99.90;;;;;;5283015;28;20033;-85
2023/09/01 02:57:08;;;;;;;1.73;1.58;;;16.20;99.90;;;;;;5283054;28;20036;-86
2023/09/01 02:59:39;;;;;;;2.05;1.80;;;16.20;99.90;;;;;;5286973;28;20034;-84
2023/09/01 03:02:13;;;;;;;2.47;1.73;;;16.20;99.90;;;;;;5287112;28;20198;-85
2023/09/01 03:04:44;;;;;;;2.85;1.83;;;16.20;99.90;;;;;;5287161;28;20027;-86
2023/09/01 03:07:16;;;;;;;2.17;1.70;;;16.20;99.90;;;;;;5286819;28;20024;-86
2023/09/01 03:09:47;;;;;;;2.08;1.88;;;16.20;99.90;;;;;;5287042;28;20318;-85
2023/09/01 03:12:18;;;;;;;1.48;1.38;;;16.20;99.90;;;;;;5285095;28;20349;-86
2023/09/01 03:14:49;;;;;;;1.98;1.50;;;16.20;99.90;;;;;;5286787;28;20027;-86
2023/09/01 03:17:23;;;;;;;3.25;1.83;;;16.20;99.90;;;;;;5287337;28;20034;-85
2023/09/01 03:19:59;;;;;;;3.10;1.67;;;16.20;99.90;;;;;;5292454;28;20028;-85
2023/09/01 03:22:35;;;;;;;2.30;1.92;;;16.20;99.90;;;;;;5286768;28;20024;-85
2023/09/01 03:25:09;;;;;;;2.17;1.58;;;16.10;99.90;;;;;;5286556;28;20027;-85
2023/09/01 03:27:44;;;;;;;1.40;1.30;;;16.10;99.90;;;;;;5304062;28;20028;-86
2023/09/01 03:30:15;;;;;;;1.98;1.75;;;16.10;1.00;;;;;;5286369;28;20034;-84
2023/09/01 03:32:52;;;;;;;2.60;1.73;;;16.10;99.90;;;;;;5286427;28;20322;-86
2023/09/01 03:38:57;;;;;;;2.63;1.50;;;16.10;99.90;;;;;;5303392;28;20020;-87
2023/09/01 03:41:32;;;;;;;1.90;1.58;;;16.10;99.90;;;;;;5286209;28;20033;-86
2023/09/01 03:44:06;;;;;;;2.08;1.67;;;16.00;99.90;;;;;;5286162;28;20032;-87
2023/09/01 03:46:37;;;;;;;1.67;1.58;;;16.00;99.90;;;;;;5286562;28;20053;-88
2023/09/01 03:49:10;;;;;;;3.17;1.85;;;15.90;1.00;;;;;;5285932;28;20095;-85
2023/09/01 03:51:44;;;;;;;1.63;1.53;;;15.90;1.00;;;;;;5286411;28;20318;-85
2023/09/01 03:54:19;;;;;;;2.28;1.95;;;15.80;1.00;;;;;;5285890;28;20023;-87
2023/09/01 03:56:50;;;;;;;1.77;1.67;;;15.70;1.00;;;;;;5285870;28;20030;-84
2023/09/01 03:59:23;;;;;;;1.95;1.60;;;15.60;1.00;;;;;;5285753;28;20027;-84
2023/09/01 04:01:56;;;;;;;2.42;1.70;;;15.60;1.00;;;;;;5285839;28;20031;-84
2023/09/01 04:04:35;;;;;;;1.70;1.60;;;15.60;1.00;;;;;;5285800;28;20032;-86
2023/09/01 04:07:14;;;;;;;1.70;1.60;;;15.60;1.00;;;;;;5285819;28;20031;-84
2023/09/01 04:09:48;;;;;;;1.90;1.60;;;15.60;1.00;;;;;;5285091;28;20032;-85
2023/09/01 04:12:19;;;;;;;1.80;1.70;;;15.70;1.00;;;;;;5285485;28;20037;-85
2023/09/01 04:14:56;;;;;;;1.80;1.70;;;15.70;1.00;;;;;;5268928;28;20036;-85
2023/09/01 04:17:31;;;;;;;1.90;1.80;;;15.70;1.00;;;;;;5285404;28;20212;-86
2023/09/01 04:20:04;;;;;;;;;;;15.70;1.00;;;;;;5286064;28;20031;-86
2023/09/01 04:22:35;;;;;;;3.75;1.50;;;15.70;1.00;;;;;;5286086;28;20163;-85
2023/09/01 04:28:38;;;;;;;2.10;1.90;;;15.70;1.00;;;;;;5302459;28;20241;-85
2023/09/01 04:31:38;;;;;;;1.92;1.73;;;15.80;1.00;;;;;;5285501;28;20023;-84
2023/09/01 04:34:10;;;;;;;1.67;1.42;;;15.80;99.90;;;;;;5282638;28;20024;-86
2023/09/01 04:36:43;;;;;;;3.67;1.98;;;15.80;99.90;;;;;;5285625;28;20213;-86
2023/09/01 04:39:17;;;;;;;2.77;2.03;;;15.90;99.90;;;;;;5285450;28;20221;-84
2023/09/01 04:41:48;;;;;;;1.65;1.40;;;16.00;99.90;;;;;;5285173;28;20034;-85
2023/09/01 04:44:20;;;;;;;2.67;1.58;;;16.10;99.90;;;;;;5285007;28;20034;-85
2023/09/01 04:46:53;;;;;;;1.35;1.25;;;16.00;99.90;;;;;;5285072;28;20309;-85
2023/09/01 04:49:27;;;;;;;1.55;1.45;;;16.00;99.90;;;;;;5285073;28;20035;-84
2023/09/01 04:52:04;;;;;;;2.75;1.60;;;16.10;2.20;;;;;;5284810;28;20023;-84
2023/09/01 04:54:35;;;;;;;1.60;1.35;;;16.10;1.00;;;;;;5284784;28;20038;-84
2023/09/01 04:57:06;;;;;;;2.50;1.58;;;16.20;1.00;;;;;;5284777;28;20339;-85
2023/09/01 04:59:40;;;;;;;1.67;1.58;;;16.20;1.00;;;;;;5284840;28;20037;-84
2023/09/01 05:02:11;;;;;;;2.50;1.35;;;16.40;1.00;;;;;;5285056;28;20032;-85
2023/09/01 05:04:45;;;;;;;1.25;1.15;;;16.50;1.00;;;;;;5284816;28;20347;-84
2023/09/01 05:07:17;;;;;;;1.42;1.30;;;16.60;1.00;;;;;;5268602;28;20039;-85
2023/09/01 05:09:55;;;;;;;1.52;1.30;;;16.60;1.00;;;;;;5284570;28;20030;-84
2023/09/01 05:12:29;;;;;;;1.92;1.80;;;16.60;1.00;;;;;;5285406;28;20031;-85
2023/09/01 05:15:01;;;;;;;2.97;1.80;;;16.70;1.00;;;;;;5268150;28;20027;-87
2023/09/01 05:17:32;;;;;;;5.10;1.50;;;16.70;1.00;;;;;;5268243;28;20027;-84
2023/09/01 05:20:11;;;;;;;1.70;1.52;;;16.70;1.00;;;;;;5286185;28;20226;-84
2023/09/01 05:22:42;;;;;;;2.33;1.40;;;16.70;1.00;;;;;;5284899;28;20032;-84
2023/09/01 05:25:17;;;;;;;4.60;1.77;;;16.60;1.00;;;;;;5268403;28;20034;-87
2023/09/01 05:27:49;;;;;;;2.05;1.85;;;16.70;1.00;;;;;;5269877;28;20031;-86
2023/09/01 05:30:20;;;;;;;1.95;1.75;;;16.70;1.00;;;;;;5267767;28;20078;-85
2023/09/01 05:32:52;;;;;;;3.13;1.75;;;16.80;1.00;;;;;;5284146;28;20027;-87
2023/09/01 05:35:23;;;;;;;4.32;1.42;;;16.80;1.00;;;;;;5284067;28;20030;-83
2023/09/01 05:37:54;;;;;;;2.47;1.70;;;16.90;1.00;;;;;;5284109;28;20027;-84
2023/09/01 05:40:25;;;;;;;1.80;1.70;;;17.00;1.00;;;;;;5285240;28;20027;-85
2023/09/01 05:42:59;;;;;;;3.53;1.55;;;17.20;1.00;;;;;;5283952;28;20195;-84
2023/09/01 05:45:36;;;;;;;1.98;1.77;;;17.40;1.00;;;;;;5283851;28;20028;-85
2023/09/01 05:48:12;;;;;;;1.52;1.42;;;17.40;1.00;;;;;;5283526;28;20019;-85
2023/09/01 05:50:45;;;;;;;4.50;1.90;;;17.50;1.00;;;;;;5284155;28;20027;-85
2023/09/01 05:53:19;;;;;;;2.00;1.80;;;17.60;1.00;;;;;;5283643;28;20351;-84
2023/09/01 05:55:50;;;;;;;1.77;1.67;;;17.60;1.00;;;;;;5283822;28;20035;-84
2023/09/01 05:58:21;;;;;;;1.63;1.45;;;17.60;1.00;;;;;;5283483;28;20024;-85
2023/09/01 06:00:56;;;;;;;1.52;1.30;;;17.60;1.00;;;;;;5283396;28;20023;-85
2023/09/01 06:03:28;;;;;;;2.03;1.70;;;17.50;99.90;;;;;;5283103;28;20046;-86
2023/09/01 06:06:01;;;;;;;2.42;1.70;;;17.50;99.90;;;;;;5283507;28;20039;-86
2023/09/01 06:08:37;;;;;;;1.40;1.30;;;17.50;99.90;;;;;;5284955;28;20031;-86
2023/09/01 06:11:12;;;;;;;1.70;1.60;;;17.60;99.90;;;;;;5284828;28;20320;-86
2023/09/01 06:13:44;;;;;;;2.42;1.70;;;17.70;99.90;;;;;;5283727;28;20028;-86
2023/09/01 06:16:18;;;;;;;2.30;1.50;;;17.70;99.90;;;;;;5267252;28;20027;-86
2023/09/01 06:18:49;;;;;;;1.88;1.48;;;17.70;99.90;;;;;;5283766;28;20034;-86
2023/09/01 06:21:26;;;;;;;1.70;1.60;;;17.90;99.90;;;;;;5283645;28;20026;-85
2023/09/01 06:23:57;;;;;;;1.70;1.60;;;17.90;99.90;;;;;;5266556;28;20041;-84
2023/09/01 06:26:31;;;;;;;2.40;1.63;;;18.00;99.90;;;;;;5283605;28;20343;-85
2023/09/01 06:29:05;;;;;;;2.90;1.42;;;18.10;99.90;;;;;;5267358;28;20046;-85
2023/09/01 06:31:36;;;;;;;2.03;1.63;;;18.00;99.90;;;;;;5283571;28;20033;-86
2023/09/01 06:34:08;;;;;;;2.55;1.77;;;18.10;99.90;;;;;;5290446;28;20031;-85
2023/09/01 06:36:40;;;;;;;1.70;1.30;;;18.10;99.90;;;;;;5274133;28;20034;-87
2023/09/01 06:39:18;;;;;;;3.03;1.85;;;18.30;99.90;;;;;;5307135;28;20030;-85
2023/09/01 06:41:49;;;;;;;2.10;1.88;;;18.40;1.00;;;;;;5272951;28;20038;-86
2023/09/01 06:44:21;;;;;;;1.90;1.52;;;18.60;99.90;;;;;;5289591;28;20034;-87
2023/09/01 06:46:57;;;;;;;1.77;1.67;;;18.70;99.90;;;;;;5290476;22;20034;-66
2023/09/01 06:49:34;;;;;;;2.80;1.38;;;18.80;99.90;;;;;;5189741;28;20053;-64
2023/09/01 06:52:07;;;;;;;2.95;1.50;;;19.00;99.90;;;;;;5208483;28;20029;-64
2023/09/01 06:54:39;;;;;;;4.05;1.73;;;19.20;99.90;;;;;;5224759;28;20059;-63
2023/09/01 06:57:13;;;;;;;3.13;1.60;;;19.40;99.90;;;;;;5215042;28;20016;-66
2023/09/01 06:59:47;;;;;;;2.83;1.60;;;19.50;99.90;;;;;;5210359;28;20031;-64
2023/09/01 07:02:21;;;;;;;3.50;1.73;;;19.60;99.90;;;;;;5237278;28;20240;-65
2023/09/01 07:04:55;;;;;;;1.50;1.33;;;19.60;99.90;;;;;;5227848;28;20030;-64
2023/09/01 07:07:29;;;;;;;1.50;1.40;;;19.30;99.90;;;;;;5222532;28;20024;-63
2023/09/01 07:10:00;;;;;;;2.90;1.58;;;19.10;99.90;;;;;;5262512;28;20027;-66
2023/09/01 07:12:33;;;;;;;5.28;1.48;;;19.10;1.00;;;;;;5250394;28;20396;-63
2023/09/01 07:15:05;;;;;;;1.70;1.60;;;19.00;15.00;;;;;;5227994;28;20042;-66
2023/09/01 07:17:37;;;;;;;2.35;1.33;;;19.00;96.80;;;;;;5222137;28;20027;-62
2023/09/01 07:20:11;;;;;;;3.08;1.55;;;19.10;27.90;;;;;;5228567;28;20028;-65
2023/09/01 07:22:45;;;;;;;2.15;1.52;;;19.10;11.70;;;;;;5244774;28;20020;-65
2023/09/01 07:25:16;;;;;;;1.33;1.23;;;19.10;1.00;;;;;;5226619;28;20034;-64
2023/09/01 07:27:47;;;;;;;1.88;1.45;;;19.00;1.00;;;;;;5243583;28;20360;-64
2023/09/01 07:30:18;;;;;;;2.30;1.50;;;19.10;1.00;;;;;;5260285;28;20030;-65
2023/09/01 07:32:50;;;;;;;2.03;1.58;;;19.20;37.90;;;;;;5227575;28;20335;-64
2023/09/01 07:35:26;;;;;;;6.10;1.80;;;19.40;42.60;;;;;;5263352;28;20042;-64
2023/09/01 07:38:03;;;;;;;2.67;1.60;;;19.60;1.00;;;;;;5243487;28;20038;-63
2023/09/01 07:40:34;;;;;;;3.42;1.90;;;19.80;68.40;;;;;;5242807;28;20023;-64
2023/09/01 07:43:09;;;;;;;1.58;1.48;;;20.20;1.00;;;;;;5243293;28;20020;-65
2023/09/01 07:45:43;;;;;;;2.55;1.85;;;20.20;1.00;;;;;;5239839;28;20036;-61
2023/09/01 07:48:14;;;;;;;2.90;1.88;;;20.10;1.00;;;;;;5228318;28;20255;-64
2023/09/01 07:50:46;;;;;;;1.90;1.70;;;20.00;1.00;;;;;;5244565;28;20024;-63
2023/09/01 07:53:18;;;;;;;1.98;1.70;;;20.10;1.00;;;;;;5243344;28;20442;-65
2023/09/01 07:55:49;;;;;;;3.88;1.80;;;20.00;1.00;;;;;;5244187;28;20028;-64
2023/09/01 07:58:25;;;;;;;1.77;1.67;;;19.80;1.00;;;;;;5247188;28;20028;-64
2023/09/01 08:00:56;;;;;;;1.98;1.40;;;19.70;1.00;;;;;;5222856;28;20031;-63
2023/09/01 08:03:31;;;;;;;2.67;2.08;;;19.60;1.00;;;;;;5243137;28;20024;-64
2023/09/01 08:06:02;;;;;;;1.98;1.70;;;19.50;1.00;;;;;;5227749;28;20028;-63
2023/09/01 08:08:33;;;;;;;2.17;1.70;;;19.70;1.00;;;;;;5262622;28;20028;-65
2023/09/01 08:11:07;;;;;;;4.45;1.70;;;20.00;1.00;;;;;;5262350;28;20015;-65
2023/09/01 08:13:38;;;;;;;2.20;1.73;;;20.40;1.00;;;;;;5227668;28;20040;-65
2023/09/01 08:16:09;;;;;;;1.95;1.58;;;20.40;1.00;;;;;;5258827;28;20028;-65
2023/09/01 08:18:44;;;;;;;1.50;1.40;;;20.50;1.00;;;;;;5243605;28;20032;-66
2023/09/01 08:21:16;;;;;;;2.15;1.65;;;20.70;1.00;;;;;;5227486;28;20028;-61
2023/09/01 08:23:49;;;;;;;2.38;1.70;;;20.90;1.00;;;;;;5254580;28;20035;-64
2023/09/01 08:26:20;;;;;;;1.73;1.63;;;21.40;1.00;;;;;;5226715;28;20468;-61
2023/09/01 08:28:53;;;;;;;2.17;1.60;;;21.50;1.00;;;;;;5244044;28;20397;-64
2023/09/01 08:31:25;;;;;;;2.10;1.50;;;21.50;1.00;;;;;;5240611;28;20365;-64
2023/09/01 08:33:59;;;;;;;2.78;1.70;;;21.60;1.00;;;;;;5242675;28;20261;-63
2023/09/01 08:36:30;;;;;;;1.90;1.55;;;21.70;1.00;;;;;;5260778;28;20497;-63
2023/09/01 08:39:02;;;;;;;2.45;1.73;;;22.00;1.00;;;;;;5261091;28;20030;-66
2023/09/01 08:41:34;;;;;;;3.15;1.75;;;22.30;99.90;;;;;;5239534;28;20020;-64
2023/09/01 08:44:06;;;;;;;2.08;1.70;;;22.40;99.90;;;;;;5218938;28;20035;-65
2023/09/01 08:46:40;;;;;;;2.55;1.75;;;22.20;99.90;;;;;;5255523;28;20125;-63
2023/09/01 08:49:15;;;;;;;2.85;1.90;;;22.40;99.90;;;;;;5257068;28;20027;-63
2023/09/01 08:51:53;;;;;;;3.45;1.60;;;22.70;99.90;;;;;;5257208;28;20020;-63
2023/09/01 08:54:28;;;;;;;2.75;1.60;;;23.30;99.90;;;;;;5225788;28;20043;-66
2023/09/01 08:57:03;;;;;;;2.25;1.75;;;23.80;1.00;;;;;;5257398;28;20023;-66
2023/09/01 08:59:37;;;;;;;2.35;1.42;;;24.10;1.00;;;;;;5220097;28;20032;-66
2023/09/01 09:02:08;;;;;;;5.35;1.52;;;24.00;1.00;;;;;;5217084;28;20034;-65
2023/09/01 09:04:39;;;;;;;1.38;1.27;;;24.00;1.00;;;;;;5216889;28;20024;-64
2023/09/01 09:07:21;;;;;;;1.70;1.30;;;24.10;1.00;;;;;;5238921;28;20028;-65
2023/09/01 09:09:59;;;;;;;2.80;1.50;;;24.20;1.00;;;;;;5255946;28;20019;-64
2023/09/01 09:12:41;;;;;;;1.33;1.23;;;24.60;1.00;;;;;;5255918;28;20121;-62
2023/09/01 09:15:19;;;;;;;1.88;1.30;;;24.50;99.90;;;;;;5253855;28;20023;-66
2023/09/01 09:17:51;;;;;;;2.20;1.75;;;24.80;1.00;;;;;;5238013;28;20031;-64
2023/09/01 09:20:40;;;;;;;1.33;1.23;;;24.80;99.90;;;;;;5221423;28;20028;-65
2023/09/01 09:23:13;;;;;;;1.60;1.20;;;24.40;99.90;;;;;;5235645;28;20020;-65
2023/09/01 09:25:44;;;;;;;2.70;1.55;;;24.30;90.50;;;;;;5222160;28;20027;-66
2023/09/01 09:28:19;;;;;;;1.90;1.38;;;24.50;99.90;;;;;;5220047;28;20035;-66
2023/09/01 09:30:57;;;;;;;1.65;1.33;;;25.30;99.90;;;;;;5219641;28;20024;-66
2023/09/01 09:33:38;;;;;;;2.22;1.52;;;25.30;1.00;;;;;;5253770;28;20032;-68
2023/09/01 09:36:12;;;;;;;2.20;1.70;;;25.40;1.00;;;;;;5256128;28;20354;-63
2023/09/01 09:38:46;;;;;;;1.40;1.30;;;25.70;5.50;;;;;;5222580;28;20367;-65
2023/09/01 09:41:23;;;;;;;1.85;1.38;;;25.90;1.00;;;;;;5256298;28;20564;-64
2023/09/01 09:43:54;;;;;;;1.40;1.30;;;25.90;1.00;;;;;;5209079;28;20040;-66
2023/09/01 09:46:49;;;;;;;1.50;1.40;;;26.30;1.00;;;;;;5214778;28;20209;-64
2023/09/01 09:49:21;;;;;;;1.88;1.20;;;26.70;1.00;;;;;;5252005;28;20030;-67
2023/09/01 09:51:53;;;;;;;1.63;1.10;;;25.90;1.00;;;;;;5256130;28;20019;-64
2023/09/01 09:54:29;;;;;;;1.20;1.10;;;24.90;1.00;;;;;;5222144;28;20032;-62
2023/09/01 09:57:05;;;;;;;1.50;1.20;;;24.50;1.00;;;;;;5256217;28;20020;-63
2023/09/01 09:59:50;;;;;;;2.70;1.13;;;23.90;1.00;;;;;;5219915;28;20461;-64
2023/09/01 10:02:42;;;;;;;1.23;1.13;;;23.70;1.00;;;;;;5239376;28;20030;-65
2023/09/01 10:05:15;;;;;;;1.15;0.85;;;24.20;1.00;;;;;;5256371;28;20031;-68
2023/09/01 10:07:54;;;;;;;1.38;1.27;;;24.10;1.00;;;;;;5220648;28;20309;-63
2023/09/01 10:10:29;;;;;;;1.77;1.10;;;24.80;1.00;;;;;;5222127;28;20039;-63
2023/09/01 10:13:07;;;;;;;1.58;1.02;;;25.50;1.00;;;;;;5254625;28;20034;-65
2023/09/01 10:15:39;;;;;;;1.08;0.82;;;25.60;1.00;;;;;;5253267;28;20027;-66
2023/09/01 10:18:12;;;;;;;1.10;1.00;;;26.00;1.00;;;;;;5256044;28;20024;-62
2023/09/01 10:20:45;;;;;;;1.38;1.00;;;26.20;1.00;;;;;;5221208;28;20023;-64
2023/09/01 10:23:16;;;;;;;1.40;1.30;;;25.30;1.00;;;;;;5218951;28;20034;-65
2023/09/01 10:26:17;;;;;;;1.55;1.05;;;25.20;1.00;;;;;;5221117;28;20468;-65
2023/09/01 10:28:59;;;;;;;1.90;1.25;;;25.90;1.00;;;;;;5221348;28;20035;-64
2023/09/01 10:31:33;;;;;;;1.10;1.00;;;26.00;1.00;;;;;;5216430;28;20080;-62
2023/09/01 10:34:15;;;;;;;1.50;1.30;;;24.70;1.00;;;;;;5253735;28;20023;-67
2023/09/01 10:37:22;;;;;;;0.90;0.90;;;24.60;1.00;;;;;;5237745;28;20567;-62
2023/09/01 10:39:54;;;;;;;2.28;1.00;;;24.60;1.00;;;;;;5221917;28;20029;-64
2023/09/01 10:42:43;;;;;;;1.30;1.00;;;25.30;1.00;;;;;;5219636;28;20032;-67
2023/09/01 10:45:15;;;;;;;1.60;0.80;;;25.60;1.00;;;;;;5217466;28;20472;-62
2023/09/01 10:47:52;;;;;;;2.05;1.05;;;25.50;1.00;;;;;;5235713;28;20042;-63
2023/09/01 10:50:26;;;;;;;0.93;0.80;;;25.90;1.00;;;;;;5251507;28;20016;-63
2023/09/01 10:53:16;;;;;;;;;;;26.30;1.00;;;;;;5227361;28;20049;-67
2023/09/01 10:56:11;;;;;;;1.75;1.10;;;26.30;1.00;;;;;;5255218;28;20117;-61
2023/09/01 10:58:58;;;;;;;2.38;1.02;;;25.30;1.00;;;;;;5246009;28;20630;-63
2023/09/01 11:01:38;;;;;;;1.10;1.00;;;25.50;1.00;;;;;;5233579;28;20016;-66
2023/09/01 11:04:19;;;;;;;0.90;0.80;;;25.80;1.00;;;;;;5255185;28;20318;-62
2023/09/01 11:06:57;;;;;;;1.88;1.20;;;26.50;1.00;;;;;;5204987;28;20024;-64
2023/09/01 11:09:34;;;;;;;1.02;0.93;;;25.70;1.00;;;;;;5219745;28;20034;-63
2023/09/01 11:12:07;;;;;;;1.15;0.90;;;25.60;99.90;;;;;;5209078;28;20016;-66
2023/09/01 11:14:53;;;;;;;1.20;1.10;;;26.00;99.90;;;;;;5255502;28;20031;-64
2023/09/01 11:17:43;;;;;;;1.40;0.90;;;25.90;99.90;;;;;;5238275;28;20028;-64
2023/09/01 11:20:19;;;;;;;1.67;1.10;;;26.00;99.90;;;;;;5237118;28;20027;-68
2023/09/01 11:22:53;;;;;;;0.90;0.90;;;25.90;99.90;;;;;;5224022;28;20043;-64
2023/09/01 11:25:27;;;;;;;0.95;0.88;;;25.80;1.00;;;;;;5221986;28;20043;-62
2023/09/01 11:27:58;;;;;;;0.88;0.88;;;25.70;99.90;;;;;;5222752;28;20348;-67
2023/09/01 11:30:30;;;;;;;1.40;0.90;;;25.70;99.90;;;;;;5225171;28;20047;-65
2023/09/01 11:33:12;;;;;;;1.30;1.20;;;25.50;99.90;;;;;;5240581;28;20055;-63
2023/09/01 11:35:44;;;;;;;1.35;0.80;;;25.40;96.50;;;;;;5240949;28;20043;-67
2023/09/01 11:38:23;;;;;;;1.02;0.90;;;25.20;99.90;;;;;;5223931;28;20063;-63
2023/09/01 11:40:57;;;;;;;1.15;1.00;;;25.30;97.70;;;;;;5240390;28;20028;-66
2023/09/01 11:43:29;;;;;;;1.77;1.10;;;25.90;33.80;;;;;;5227215;28;20031;-64
2023/09/01 11:46:00;;;;;;;3.63;0.90;;;26.60;92.00;;;;;;5223919;28;20028;-62
2023/09/01 11:48:32;;;;;;;1.00;0.90;;;27.10;99.90;;;;;;5209096;28;20117;-65
2023/09/01 11:51:11;;;;;;;0.88;0.88;;;27.20;24.30;;;;;;5227410;28;20035;-63
2023/09/01 11:53:43;;;;;;;0.70;0.70;;;27.60;99.90;;;;;;5228130;28;20220;-63
2023/09/01 11:56:27;;;;;;;0.98;0.70;;;27.30;99.90;;;;;;5227206;28;20043;-65
2023/09/01 11:59:00;;;;;;;0.68;0.68;;;27.00;78.30;;;;;;5255733;28;20317;-65
2023/09/01 12:01:41;;;;;;;0.98;0.90;;;26.80;98.90;;;;;;5234326;28;20036;-67
2023/09/01 12:04:12;;;;;;;1.30;1.17;;;26.70;12.50;;;;;;5243730;28;20054;-64
2023/09/01 12:06:47;;;;;;;1.13;1.02;;;27.00;99.90;;;;;;5262130;28;20030;-63
2023/09/01 12:09:19;;;;;;;2.10;1.40;;;27.60;99.90;;;;;;5208521;28;20099;-65
2023/09/01 12:12:02;;;;;;;1.25;1.15;;;27.80;99.90;;;;;;5259082;28;20453;-63
2023/09/01 12:14:36;;;;;;;0.85;0.82;;;27.90;99.90;;;;;;5258905;28;20491;-61
2023/09/01 12:17:20;;;;;;;1.38;1.00;;;28.10;99.90;;;;;;5221927;28;20567;-64
2023/09/01 12:19:52;;;;;;;3.33;1.67;;;28.30;99.90;;;;;;5223665;28;20034;-64
2023/09/01 12:22:23;;;;;;;1.60;1.10;;;28.50;99.90;;;;;;5223292;28;20175;-66
2023/09/01 12:24:57;;;;;;;1.20;1.10;;;28.70;1.00;;;;;;5262830;28;20073;-61
2023/09/01 12:27:30;;;;;;;1.27;1.17;;;28.60;1.00;;;;;;5236594;28;20035;-65
2023/09/01 12:30:03;;;;;;;1.20;1.10;;;27.50;99.90;;;;;;5262085;28;20012;-62
2023/09/01 12:32:34;;;;;;;1.58;1.30;;;27.20;1.00;;;;;;5222395;28;20230;-65
2023/09/01 12:35:06;;;;;;;2.28;1.25;;;27.00;1.00;;;;;;5261285;28;20035;-66
2023/09/01 12:37:40;;;;;;;1.05;0.98;;;27.10;1.00;;;;;;5226110;28;20138;-64
2023/09/01 12:40:11;;;;;;;2.72;1.10;;;27.00;1.00;;;;;;5225757;28;20290;-64
2023/09/01 12:42:45;;;;;;;1.30;1.20;;;27.20;99.90;;;;;;5261885;28;20362;-64
2023/09/01 12:45:16;;;;;;;1.42;1.10;;;27.00;56.40;;;;;;5258120;28;20304;-63
2023/09/01 12:47:49;;;;;;;1.20;1.10;;;27.30;99.90;;;;;;5243247;28;20039;-63
2023/09/01 12:50:22;;;;;;;2.88;1.60;;;27.60;99.90;;;;;;5208950;28;20036;-62
2023/09/01 12:52:57;;;;;;;1.30;1.17;;;27.80;99.90;;;;;;5226382;28;20028;-64
2023/09/01 12:55:31;;;;;;;1.60;1.33;;;28.00;35.80;;;;;;5223313;28;20853;-63
2023/09/01 12:58:07;;;;;;;1.20;1.10;;;27.80;54.80;;;;;;5235833;28;20043;-62
2023/09/01 13:00:38;;;;;;;1.83;1.30;;;27.40;99.90;;;;;;5219134;28;20566;-65
2023/09/01 13:03:15;;;;;;;2.75;1.50;;;27.20;99.90;;;;;;5259857;28;20458;-64
2023/09/01 13:05:49;;;;;;;1.30;1.20;;;27.40;99.90;;;;;;5241469;28;20028;-64
2023/09/01 13:08:23;;;;;;;1.50;1.40;;;27.70;99.90;;;;;;5223274;28;20252;-66
2023/09/01 13:10:54;;;;;;;;;;;28.00;99.90;;;;;;5257108;28;20024;-64
2023/09/01 13:13:25;;;;;;;1.23;1.13;;;28.30;1.00;;;;;;5236197;28;19935;-64
2023/09/01 13:15:56;;;;;;;1.45;1.30;;;29.00;1.00;;;;;;5253104;28;20047;-64
2023/09/01 13:18:30;;;;;;;3.13;1.30;;;29.30;1.00;;;;;;5256695;28;20362;-63
2023/09/01 13:21:02;;;;;;;3.17;1.30;;;29.60;1.00;;;;;;5222258;28;20336;-65
2023/09/01 13:23:36;;;;;;;4.30;1.45;;;30.10;1.00;;;;;;5221359;28;20028;-62
2023/09/01 13:26:07;;;;;;;1.30;1.20;;;30.90;1.00;;;;;;5222580;28;20028;-66
2023/09/01 13:28:41;;;;;;;2.70;1.30;;;30.90;1.00;;;;;;5237582;28;20411;-63
2023/09/01 13:31:14;;;;;;;1.65;1.15;;;30.40;1.00;;;;;;5234513;28;20028;-66
2023/09/01 13:33:45;;;;;;;1.27;1.10;;;29.80;1.00;;;;;;5205495;28;20019;-64
2023/09/01 13:36:16;;;;;;;1.52;1.10;;;28.70;1.00;;;;;;5237628;28;20032;-65
2023/09/01 13:38:49;;;;;;;1.65;1.08;;;28.20;1.00;;;;;;5256323;28;20024;-65